createdAt,value
2018-04-26T00:01:45.597Z,94.70
2018-04-26T00:04:14.651Z,94.40
2018-04-26T00:06:42.694Z,93.90
2018-04-26T00:09:10.231Z,94.30
2018-04-26T00:11:37.754Z,94.00
2018-04-26T00:14:05.294Z,94.10
2018-04-26T00:16:32.802Z,93.90
2018-04-26T00:19:00.330Z,94.40
2018-04-26T00:21:27.867Z,94.50
2018-04-26T00:23:55.400Z,95.10
2018-04-26T00:26:22.923Z,94.50
2018-04-26T00:28:50.916Z,93.90
2018-04-26T00:31:18.431Z,93.70
2018-04-26T00:33:45.948Z,93.40
2018-04-26T00:36:25.143Z,93.60
2018-04-26T00:42:13.837Z,94.20
2018-04-26T00:44:41.355Z,94.60
2018-04-26T00:47:08.943Z,95.20
2018-04-26T00:49:37.731Z,95.80
2018-04-26T00:52:05.292Z,96.00
2018-04-26T00:54:32.924Z,95.90
2018-04-26T00:57:01.228Z,95.70
2018-04-26T00:59:28.746Z,95.70
2018-04-26T01:01:56.259Z,96.10
2018-04-26T01:04:23.801Z,97.10
2018-04-26T01:06:51.343Z,97.30
2018-04-26T01:09:19.627Z,96.90
2018-04-26T01:11:47.526Z,96.90
2018-04-26T01:14:17.236Z,97.00
2018-04-26T01:16:44.762Z,97.00
2018-04-26T01:19:12.327Z,96.90
2018-04-26T01:21:39.959Z,97.30
2018-04-26T01:24:07.482Z,97.20
2018-04-26T01:26:35.043Z,97.30
2018-04-26T01:29:02.561Z,96.90
2018-04-26T01:31:30.066Z,96.50
2018-04-26T01:33:57.908Z,96.30
2018-04-26T01:36:37.264Z,95.80
2018-04-26T01:39:04.817Z,96.00
2018-04-26T01:41:32.331Z,95.90
2018-04-26T01:44:00.635Z,95.30
2018-04-26T01:46:28.201Z,95.30
2018-04-26T01:48:55.722Z,96.20
2018-04-26T01:51:23.867Z,95.70
2018-04-26T01:53:52.114Z,95.70
2018-04-26T01:56:19.628Z,95.80
2018-04-26T01:58:47.138Z,95.90
2018-04-26T02:01:15.748Z,96.00
2018-04-26T02:03:43.272Z,96.20
2018-04-26T02:06:10.847Z,96.30
2018-04-26T02:08:38.384Z,95.90
2018-04-26T02:11:05.886Z,96.00
2018-04-26T02:13:33.416Z,95.60
2018-04-26T02:16:01.287Z,95.50
2018-04-26T02:18:28.834Z,95.60
2018-04-26T02:20:56.363Z,96.60
2018-04-26T02:23:23.962Z,95.60
2018-04-26T02:25:51.475Z,95.60
2018-04-26T02:28:19.002Z,95.80
2018-04-26T02:30:46.555Z,95.20
2018-04-26T02:33:15.509Z,95.40
2018-04-26T02:35:43.018Z,95.00
2018-04-26T02:38:11.791Z,94.90
2018-04-26T02:40:39.305Z,94.80
2018-04-26T02:43:06.815Z,94.70
2018-04-26T02:45:34.387Z,94.50
2018-04-26T02:48:02.667Z,93.70
2018-04-26T02:50:30.179Z,93.70
2018-04-26T02:52:58.406Z,94.60
2018-04-26T02:55:25.938Z,93.60
2018-04-26T02:57:54.247Z,93.20
2018-04-26T03:00:22.238Z,93.20
2018-04-26T03:02:49.774Z,93.00
2018-04-26T03:05:17.297Z,94.00
2018-04-26T03:07:44.964Z,93.30
2018-04-26T03:10:12.488Z,93.10
2018-04-26T03:12:40.084Z,92.90
2018-04-26T03:15:07.571Z,93.00
2018-04-26T03:17:35.095Z,92.90
2018-04-26T03:20:02.615Z,93.30
2018-04-26T03:22:30.485Z,93.10
2018-04-26T03:24:58.030Z,93.00
2018-04-26T03:27:25.571Z,93.00
2018-04-26T03:29:53.134Z,93.30
2018-04-26T03:32:20.687Z,93.40
2018-04-26T03:34:48.240Z,93.50
2018-04-26T03:37:16.491Z,92.90
2018-04-26T03:39:44.019Z,93.20
2018-04-26T03:42:11.542Z,92.60
2018-04-26T03:44:39.374Z,92.70
2018-04-26T03:47:06.894Z,92.20
2018-04-26T03:49:34.413Z,92.40
2018-04-26T03:52:02.730Z,92.50
2018-04-26T03:54:31.141Z,92.50
2018-04-26T03:56:58.647Z,92.80
2018-04-26T03:59:26.173Z,92.50
2018-04-26T04:02:05.534Z,92.50
2018-04-26T04:04:44.822Z,93.30
2018-04-26T04:07:12.395Z,93.10
2018-04-26T04:09:40.677Z,92.80
2018-04-26T04:12:08.992Z,91.90
2018-04-26T04:14:36.507Z,91.90
2018-04-26T04:17:04.030Z,92.00
2018-04-26T04:19:31.568Z,91.70
2018-04-26T04:21:59.106Z,92.00
2018-04-26T04:24:26.639Z,92.00
2018-04-26T04:26:54.198Z,91.30
2018-04-26T04:29:21.714Z,91.90
2018-04-26T04:31:49.282Z,90.50
2018-04-26T04:34:16.834Z,90.60
2018-04-26T04:36:44.379Z,90.40
2018-04-26T04:39:11.939Z,90.30
2018-04-26T04:41:39.529Z,90.30
2018-04-26T04:44:07.046Z,90.50
2018-04-26T04:46:34.558Z,89.10
2018-04-26T04:49:02.625Z,84.10
2018-04-26T04:51:30.217Z,84.80
2018-04-26T04:53:58.523Z,82.90
2018-04-26T04:56:26.469Z,82.90
2018-04-26T04:58:53.983Z,82.10
2018-04-26T05:01:21.507Z,83.80
2018-04-26T05:03:49.043Z,84.90
2018-04-26T05:06:16.575Z,84.10
2018-04-26T05:08:44.875Z,86.40
2018-04-26T05:11:12.644Z,86.40
2018-04-26T05:13:40.201Z,83.90
2018-04-26T05:16:07.730Z,82.10
2018-04-26T05:18:35.267Z,82.20
2018-04-26T05:21:02.795Z,80.30
2018-04-26T05:23:30.307Z,81.80
2018-04-26T05:25:58.630Z,85.00
2018-04-26T05:28:26.165Z,85.00
2018-04-26T05:30:53.695Z,86.30
2018-04-26T05:33:21.295Z,84.80
2018-04-26T05:35:48.842Z,85.80
2018-04-26T05:38:16.378Z,86.20
2018-04-26T05:40:44.703Z,88.00
2018-04-26T05:43:12.209Z,88.00
2018-04-26T05:45:39.759Z,88.70
2018-04-26T05:48:07.333Z,90.00
2018-04-26T05:50:35.641Z,91.20
2018-04-26T05:53:03.219Z,91.10
2018-04-26T05:55:31.194Z,91.00
2018-04-26T05:58:00.249Z,90.90
2018-04-26T06:00:28.549Z,90.50
2018-04-26T06:02:56.090Z,90.50
2018-04-26T06:05:23.643Z,89.80
2018-04-26T06:07:51.186Z,90.60
2018-04-26T06:10:19.501Z,90.20
2018-04-26T06:12:47.054Z,90.10
2018-04-26T06:15:16.570Z,90.30
2018-04-26T06:17:44.614Z,90.30
2018-04-26T06:20:12.726Z,89.40
2018-04-26T06:22:40.253Z,90.20
2018-04-26T06:25:07.828Z,90.60
2018-04-26T06:27:35.392Z,92.30
2018-04-26T06:30:02.917Z,93.30
2018-04-26T06:32:30.454Z,94.00
2018-04-26T06:34:59.387Z,93.70
2018-04-26T06:37:26.928Z,92.30
2018-04-26T06:39:54.813Z,93.10
2018-04-26T06:42:22.417Z,93.00
2018-04-26T06:44:50.623Z,92.80
2018-04-26T06:47:19.010Z,93.30
2018-04-26T06:49:46.527Z,93.50
2018-04-26T06:52:16.292Z,93.70
2018-04-26T06:54:43.863Z,93.70
2018-04-26T06:57:11.418Z,92.60
2018-04-26T06:59:39.463Z,93.50
2018-04-26T07:02:07.950Z,93.20
2018-04-26T07:04:35.479Z,93.10
2018-04-26T07:07:03.037Z,92.90
2018-04-26T07:09:30.577Z,91.80
2018-04-26T07:11:58.159Z,92.10
2018-04-26T07:14:25.620Z,90.60
2018-04-26T07:16:53.214Z,90.60
2018-04-26T07:19:20.694Z,90.30
2018-04-26T07:21:48.275Z,90.20
2018-04-26T07:24:16.761Z,90.40
2018-04-26T07:26:44.280Z,90.60
2018-04-26T07:29:11.799Z,91.50
2018-04-26T07:31:40.302Z,91.30
2018-04-26T07:34:07.814Z,91.30
2018-04-26T07:36:35.326Z,91.80
2018-04-26T07:39:03.350Z,91.70
2018-04-26T07:41:30.868Z,91.70
2018-04-26T07:43:58.403Z,91.40
2018-04-26T07:46:26.426Z,91.30
2018-04-26T07:48:53.951Z,91.10
2018-04-26T07:51:21.454Z,91.00
2018-04-26T07:53:48.991Z,91.00
2018-04-26T07:56:16.502Z,91.40
2018-04-26T07:58:44.019Z,91.10
2018-04-26T08:01:12.140Z,90.10
2018-04-26T08:03:39.650Z,90.60
2018-04-26T08:06:07.172Z,89.50
2018-04-26T08:08:34.742Z,90.00
2018-04-26T08:11:02.255Z,90.50
2018-04-26T08:13:30.567Z,88.20
2018-04-26T08:15:58.096Z,88.10
2018-04-26T08:18:25.610Z,87.50
2018-04-26T08:20:53.133Z,86.40
2018-04-26T08:23:20.671Z,86.70
2018-04-26T08:25:48.204Z,89.80
2018-04-26T08:28:16.441Z,88.20
2018-04-26T08:30:44.071Z,87.60
2018-04-26T08:33:11.582Z,85.70
2018-04-26T08:35:39.109Z,85.40
2018-04-26T08:38:07.149Z,85.10
2018-04-26T08:40:34.684Z,84.30
2018-04-26T08:43:02.203Z,84.70
2018-04-26T08:45:29.783Z,84.40
2018-04-26T08:47:57.296Z,83.20
2018-04-26T08:50:24.908Z,81.30
2018-04-26T08:52:52.750Z,83.40
2018-04-26T08:55:20.277Z,81.50
2018-04-26T08:57:47.791Z,80.10
2018-04-26T09:00:16.607Z,80.70
2018-04-26T09:02:44.618Z,79.60
2018-04-26T09:05:12.159Z,79.80
2018-04-26T09:07:39.711Z,80.20
2018-04-26T09:10:07.248Z,78.60
2018-04-26T09:12:34.782Z,79.00
2018-04-26T09:15:02.385Z,79.10
2018-04-26T09:17:29.917Z,77.40
2018-04-26T09:19:58.218Z,78.80
2018-04-26T09:22:25.773Z,78.70
2018-04-26T09:24:53.359Z,76.80
2018-04-26T09:27:21.327Z,75.60
2018-04-26T09:29:48.939Z,76.70
2018-04-26T09:32:16.490Z,77.80
2018-04-26T09:34:44.019Z,79.20
2018-04-26T09:37:12.181Z,76.60
2018-04-26T09:39:39.716Z,77.80
2018-04-26T09:42:07.263Z,78.00
2018-04-26T09:44:35.582Z,77.80
2018-04-26T09:47:03.463Z,77.80
2018-04-26T09:49:32.025Z,78.50
2018-04-26T09:52:00.861Z,76.90
2018-04-26T09:54:28.476Z,78.10
2018-04-26T09:56:56.024Z,77.40
2018-04-26T09:59:24.010Z,77.40
2018-04-26T10:01:57.656Z,79.40
2018-04-26T10:04:26.675Z,78.10
2018-04-26T10:06:59.107Z,78.10
2018-04-26T10:09:26.643Z,78.20
2018-04-26T10:11:54.185Z,78.70
2018-04-26T10:14:21.698Z,78.30
2018-04-26T10:16:49.210Z,80.10
2018-04-26T10:19:16.947Z,79.30
2018-04-26T10:21:44.483Z,80.00
2018-04-26T10:24:11.999Z,79.90
2018-04-26T10:26:39.672Z,81.80
2018-04-26T10:29:07.217Z,82.30
2018-04-26T10:31:34.732Z,80.30
2018-04-26T10:34:02.343Z,79.80
2018-04-26T10:36:29.866Z,77.90
2018-04-26T10:38:57.427Z,79.70
2018-04-26T10:41:25.274Z,77.40
2018-04-26T10:43:53.562Z,80.00
2018-04-26T10:46:21.090Z,80.00
2018-04-26T10:48:49.399Z,78.90
2018-04-26T10:51:16.906Z,78.90
2018-04-26T10:53:44.431Z,77.80
2018-04-26T10:56:13.758Z,75.60
2018-04-26T10:58:41.283Z,75.50
2018-04-26T11:01:08.811Z,77.10
2018-04-26T11:03:37.443Z,76.40
2018-04-26T11:06:05.703Z,76.30
2018-04-26T11:08:33.243Z,75.60
2018-04-26T11:11:00.810Z,75.90
2018-04-26T11:13:28.328Z,76.40
2018-04-26T11:15:56.648Z,76.50
2018-04-26T11:18:24.211Z,76.40
2018-04-26T11:20:51.755Z,78.30
2018-04-26T11:23:19.270Z,79.00
2018-04-26T11:25:47.404Z,79.70
2018-04-26T11:28:16.410Z,81.00
2018-04-26T11:30:43.949Z,80.80
2018-04-26T11:33:11.538Z,79.80
2018-04-26T11:35:39.374Z,81.60
2018-04-26T11:38:06.924Z,81.70
2018-04-26T11:40:34.539Z,82.50
2018-04-26T11:43:02.058Z,80.10
2018-04-26T11:45:29.596Z,80.20
2018-04-26T11:47:57.482Z,79.50
2018-04-26T11:50:25.004Z,78.20
2018-04-26T11:52:53.337Z,79.00
2018-04-26T11:55:20.927Z,78.70
2018-04-26T11:57:48.446Z,77.60
2018-04-26T12:00:16.762Z,76.00
2018-04-26T12:02:44.424Z,75.70
2018-04-26T12:05:11.939Z,77.60
2018-04-26T12:07:40.146Z,76.60
2018-04-26T12:10:08.313Z,75.50
2018-04-26T12:12:35.885Z,77.50
2018-04-26T12:15:03.424Z,76.30
2018-04-26T12:17:31.007Z,77.50
2018-04-26T12:19:58.816Z,76.60
2018-04-26T12:22:26.359Z,77.10
2018-04-26T12:24:53.935Z,76.10
2018-04-26T12:27:21.555Z,75.80
2018-04-26T12:29:49.071Z,74.30
2018-04-26T12:32:17.131Z,72.90
2018-04-26T12:34:44.648Z,72.40
2018-04-26T12:37:13.911Z,69.80
2018-04-26T12:39:41.460Z,69.60
2018-04-26T12:42:08.989Z,72.10
2018-04-26T12:44:36.518Z,71.80
2018-04-26T12:47:04.843Z,72.60
2018-04-26T12:49:32.362Z,72.60
2018-04-26T12:52:00.664Z,74.50
2018-04-26T12:54:28.262Z,74.40
2018-04-26T12:56:55.771Z,73.00
2018-04-26T12:59:23.292Z,73.10
2018-04-26T13:01:50.858Z,73.00
2018-04-26T13:04:18.374Z,73.90
2018-04-26T13:06:45.950Z,73.90
2018-04-26T13:09:15.751Z,73.80
2018-04-26T13:11:43.296Z,72.50
2018-04-26T13:14:10.849Z,72.70
2018-04-26T13:16:38.459Z,71.30
2018-04-26T13:19:05.990Z,71.80
2018-04-26T13:21:33.522Z,69.90
2018-04-26T13:24:01.100Z,69.00
2018-04-26T13:26:28.625Z,69.30
2018-04-26T13:28:56.155Z,68.60
2018-04-26T13:31:23.736Z,67.70
2018-04-26T13:33:52.034Z,68.40
2018-04-26T13:36:19.594Z,68.30
2018-04-26T13:38:47.162Z,68.30
2018-04-26T13:41:16.474Z,68.90
2018-04-26T13:43:44.006Z,68.00
2018-04-26T13:46:11.605Z,68.30
2018-04-26T13:48:39.127Z,66.70
2018-04-26T13:51:06.743Z,66.40
2018-04-26T13:53:34.294Z,66.80
2018-04-26T13:56:01.823Z,66.30
2018-04-26T13:58:29.359Z,65.90
2018-04-26T14:00:57.047Z,67.00
2018-04-26T14:03:24.612Z,66.00
2018-04-26T14:05:52.936Z,63.40
2018-04-26T14:08:20.528Z,62.60
2018-04-26T14:10:49.920Z,62.60
2018-04-26T14:13:17.443Z,61.40
2018-04-26T14:15:45.035Z,62.40
2018-04-26T14:18:14.244Z,63.00
2018-04-26T14:20:41.770Z,62.80
2018-04-26T14:23:09.480Z,63.80
2018-04-26T14:25:37.911Z,65.40
2018-04-26T14:28:06.298Z,64.70
2018-04-26T14:30:33.876Z,64.70
2018-04-26T14:33:02.439Z,64.80
2018-04-26T14:35:30.728Z,62.70
2018-04-26T14:37:58.276Z,62.80
2018-04-26T14:40:26.567Z,64.00
2018-04-26T14:42:54.083Z,63.90
2018-04-26T14:45:22.026Z,61.50
2018-04-26T14:47:49.541Z,59.90
2018-04-26T14:50:17.829Z,61.30
2018-04-26T14:52:45.374Z,61.20
2018-04-26T14:55:25.289Z,60.90
2018-04-26T15:00:31.405Z,58.70
2018-04-26T15:02:58.973Z,58.50
2018-04-26T15:05:26.571Z,57.80
2018-04-26T15:07:54.107Z,59.00
2018-04-26T15:10:21.640Z,60.30
2018-04-26T15:12:50.964Z,59.00
2018-04-26T15:15:18.614Z,58.80
2018-04-26T15:17:46.111Z,58.90
2018-04-26T15:20:23.824Z,59.90
2018-04-26T15:31:21.389Z,60.40
2018-04-26T15:33:48.904Z,62.80
2018-04-26T15:36:16.428Z,60.40
2018-04-26T15:38:44.028Z,59.80
2018-04-26T15:41:11.554Z,61.20
2018-04-26T15:43:39.086Z,60.80
2018-04-26T15:46:06.636Z,61.10
2018-04-26T15:48:34.151Z,59.70
2018-04-26T15:51:01.663Z,61.10
2018-04-26T15:53:40.934Z,60.90
2018-04-26T15:56:33.003Z,61.10
2018-04-26T15:59:13.554Z,61.80
2018-04-26T16:05:24.532Z,61.30
2018-04-26T16:08:09.652Z,61.30
2018-04-26T16:10:54.932Z,61.20
2018-04-26T16:13:40.894Z,61.20
2018-04-26T16:16:35.140Z,60.50
2018-04-26T16:19:31.399Z,60.90
2018-04-26T16:22:17.447Z,59.90
2018-04-26T16:24:57.306Z,61.90
2018-04-26T16:27:42.386Z,61.90
2018-04-26T16:30:21.722Z,60.30
2018-04-26T16:33:05.235Z,60.60
2018-04-26T16:35:44.634Z,59.60
2018-04-26T16:38:23.851Z,60.00
2018-04-26T16:40:52.132Z,62.70
2018-04-26T16:43:20.418Z,61.50
2018-04-26T16:45:48.037Z,62.00
2018-04-26T16:48:17.187Z,61.60
2018-04-26T16:50:44.696Z,61.60
2018-04-26T16:53:12.471Z,60.80
2018-04-26T16:55:40.762Z,61.50
2018-04-26T16:58:09.046Z,62.40
2018-04-26T17:00:36.607Z,62.40
2018-04-26T17:03:04.161Z,62.40
2018-04-26T17:05:32.499Z,63.00
2018-04-26T17:08:00.054Z,62.80
2018-04-26T17:10:27.583Z,63.60
2018-04-26T17:12:55.100Z,63.00
2018-04-26T17:15:23.547Z,64.10
2018-04-26T17:17:51.015Z,64.10
2018-04-26T17:20:18.561Z,64.90
2018-04-26T17:22:46.138Z,64.90
2018-04-26T17:25:25.938Z,65.80
2018-04-26T17:30:27.614Z,66.70
2018-04-26T17:32:55.128Z,65.80
2018-04-26T17:35:23.409Z,67.40
2018-04-26T17:37:51.735Z,66.80
2018-04-26T17:40:19.283Z,66.80
2018-04-26T17:42:47.647Z,67.20
2018-04-26T17:45:16.564Z,67.80
2018-04-26T17:47:44.138Z,68.00
2018-04-26T17:50:11.983Z,68.50
2018-04-26T17:52:39.560Z,68.30
2018-04-26T17:55:07.117Z,67.50
2018-04-26T17:57:34.764Z,68.40
2018-04-26T18:00:02.331Z,67.80
2018-04-26T18:02:29.903Z,68.70
2018-04-26T18:04:57.461Z,69.70
2018-04-26T18:07:25.016Z,69.90
2018-04-26T18:09:52.550Z,70.90
2018-04-26T18:12:20.095Z,71.30
2018-04-26T18:14:48.082Z,71.90
2018-04-26T18:17:17.077Z,71.20
2018-04-26T18:19:44.651Z,72.20
2018-04-26T18:22:13.957Z,72.90
2018-04-26T18:24:41.546Z,73.40
2018-04-26T18:27:09.223Z,73.00
2018-04-26T18:29:36.879Z,73.10
2018-04-26T18:32:04.501Z,74.00
2018-04-26T18:34:33.215Z,74.40
2018-04-26T18:37:01.253Z,75.10
2018-04-26T18:39:28.779Z,74.90
2018-04-26T18:41:56.309Z,75.00
2018-04-26T18:44:24.631Z,75.20
2018-04-26T18:46:52.165Z,75.20
2018-04-26T18:49:19.696Z,75.10
2018-04-26T18:51:47.998Z,76.10
2018-04-26T18:54:17.717Z,75.40
2018-04-26T18:56:45.267Z,75.50
2018-04-26T18:59:13.762Z,75.40
2018-04-26T19:01:41.294Z,75.90
2018-04-26T19:04:09.571Z,76.50
2018-04-26T19:06:37.886Z,76.70
2018-04-26T19:09:05.427Z,76.70
2018-04-26T19:11:33.043Z,77.20
2018-04-26T19:14:00.591Z,77.90
2018-04-26T19:16:28.142Z,78.30
2018-04-26T19:18:56.450Z,78.80
2018-04-26T19:21:24.366Z,79.20
2018-04-26T19:23:51.949Z,79.90
2018-04-26T19:26:19.483Z,79.90
2018-04-26T19:28:47.043Z,79.50
2018-04-26T19:31:28.647Z,78.40
2018-04-26T19:43:36.475Z,78.40
2018-04-26T19:46:03.987Z,82.30
2018-04-26T19:48:31.511Z,81.90
2018-04-26T19:50:59.063Z,81.70
2018-04-26T19:53:26.636Z,82.00
2018-04-26T19:55:55.007Z,81.90
2018-04-26T19:58:22.564Z,82.50
2018-04-26T20:00:50.092Z,82.40
2018-04-26T20:03:17.859Z,83.40
2018-04-26T20:05:46.289Z,83.90
2018-04-26T20:08:25.778Z,83.40
2018-04-26T20:19:34.151Z,83.20
2018-04-26T20:22:01.797Z,86.00
2018-04-26T20:24:29.315Z,86.40
2018-04-26T20:26:56.899Z,86.10
2018-04-26T20:29:24.435Z,86.10
2018-04-26T20:31:51.984Z,86.40
2018-04-26T20:34:19.552Z,86.20
2018-04-26T20:36:47.062Z,86.30
2018-04-26T20:39:26.048Z,86.30
2018-04-26T20:44:49.175Z,86.60
2018-04-26T20:47:16.704Z,87.00
2018-04-26T20:49:44.985Z,87.50
2018-04-26T20:52:12.645Z,87.50
2018-04-26T20:54:41.053Z,87.60
2018-04-26T20:57:08.626Z,87.60
2018-04-26T20:59:36.178Z,87.50
2018-04-26T21:02:03.858Z,87.10
2018-04-26T21:04:31.386Z,88.10
2018-04-26T21:06:58.962Z,87.10
2018-04-26T21:09:26.489Z,87.20
2018-04-26T21:11:54.032Z,86.90
2018-04-26T21:14:21.572Z,87.10
2018-04-26T21:16:49.095Z,86.80
2018-04-26T21:19:16.607Z,87.30
2018-04-26T21:21:44.903Z,87.20
2018-04-26T21:24:12.423Z,86.90
2018-04-26T21:26:39.954Z,87.10
2018-04-26T21:29:07.802Z,86.80
2018-04-26T21:31:35.321Z,86.80
2018-04-26T21:34:02.857Z,87.70
2018-04-26T21:36:30.416Z,87.10
2018-04-26T21:38:57.935Z,87.20
2018-04-26T21:41:25.450Z,87.20
2018-04-26T21:43:53.764Z,88.20
2018-04-26T21:46:21.278Z,88.20
2018-04-26T21:48:48.799Z,88.40
2018-04-26T21:51:22.510Z,88.70
2018-04-26T21:53:55.802Z,89.10
2018-04-26T21:56:28.954Z,89.60
2018-04-26T21:59:02.227Z,90.10
2018-04-26T22:01:36.051Z,90.30
2018-04-26T22:07:07.800Z,90.70
2018-04-26T22:09:36.098Z,90.80
2018-04-26T22:12:03.616Z,90.80
2018-04-26T22:14:31.155Z,90.90
2018-04-26T22:16:58.708Z,91.10
2018-04-26T22:19:26.238Z,90.90
2018-04-26T22:21:54.650Z,91.10
2018-04-26T22:24:22.245Z,91.20
2018-04-26T22:26:49.710Z,91.50
2018-04-26T22:29:18.692Z,91.70
2018-04-26T22:31:46.198Z,91.40
2018-04-26T22:34:15.517Z,91.60
2018-04-26T22:36:43.071Z,91.50
2018-04-26T22:39:10.602Z,91.90
2018-04-26T22:41:38.125Z,91.80
2018-04-26T22:44:05.688Z,92.10
2018-04-26T22:46:33.995Z,92.50
2018-04-26T22:49:01.531Z,92.50
2018-04-26T22:51:29.866Z,92.20
2018-04-26T22:53:57.399Z,92.20
2018-04-26T22:56:24.925Z,92.10
2018-04-26T22:58:53.239Z,93.10
2018-04-26T23:01:20.751Z,93.10
2018-04-26T23:03:48.285Z,93.30
2018-04-26T23:06:16.466Z,93.10
2018-04-26T23:08:43.991Z,93.30
2018-04-26T23:11:11.507Z,93.60
2018-04-26T23:13:39.366Z,93.90
2018-04-26T23:16:07.648Z,94.00
2018-04-26T23:18:35.930Z,93.90
2018-04-26T23:21:04.249Z,94.30
2018-04-26T23:23:32.656Z,94.30
2018-04-26T23:26:00.430Z,94.10
2018-04-26T23:28:28.762Z,94.50
2018-04-26T23:30:57.492Z,94.20
2018-04-26T23:33:25.074Z,94.40
2018-04-26T23:35:52.838Z,94.40
2018-04-26T23:38:21.287Z,94.60
2018-04-26T23:40:49.603Z,94.80
2018-04-26T23:43:17.269Z,94.80
2018-04-26T23:45:44.782Z,95.00
2018-04-26T23:48:12.296Z,95.20
2018-04-26T23:50:39.846Z,95.00
2018-04-26T23:53:07.363Z,94.90
2018-04-26T23:55:34.871Z,94.20
2018-04-26T23:58:02.498Z,94.20
